createdAt,value
2018-07-21T00:02:01.481Z,24.34
2018-07-21T00:04:29.696Z,24.34
2018-07-21T00:06:57.936Z,24.33
2018-07-21T00:09:26.189Z,24.33
2018-07-21T00:11:54.401Z,24.30
2018-07-21T00:14:22.630Z,24.31
2018-07-21T00:16:50.880Z,24.31
2018-07-21T00:19:19.109Z,24.32
2018-07-21T00:21:47.349Z,24.31
2018-07-21T00:24:15.568Z,24.31
2018-07-21T00:26:49.724Z,24.28
2018-07-21T00:29:19.545Z,24.26
2018-07-21T00:31:47.790Z,24.24
2018-07-21T00:34:16.037Z,24.20
2018-07-21T00:36:44.307Z,24.18
2018-07-21T00:39:14.243Z,24.16
2018-07-21T00:41:42.525Z,24.12
2018-07-21T00:44:10.769Z,24.10
2018-07-21T00:46:39.002Z,24.07
2018-07-21T00:49:07.357Z,24.06
2018-07-21T00:51:35.897Z,24.01
2018-07-21T00:54:04.113Z,23.97
2018-07-21T00:56:32.372Z,23.93
2018-07-21T00:59:00.608Z,23.93
2018-07-21T01:01:28.844Z,23.90
2018-07-21T01:03:57.076Z,23.88
2018-07-21T01:06:25.369Z,23.85
2018-07-21T01:08:53.612Z,23.85
2018-07-21T01:11:21.842Z,23.84
2018-07-21T01:13:50.113Z,23.83
2018-07-21T01:16:18.400Z,23.81
2018-07-21T01:18:46.620Z,23.79
2018-07-21T01:21:14.848Z,23.78
2018-07-21T01:23:43.068Z,23.76
2018-07-21T01:26:11.289Z,23.72
2018-07-21T01:28:39.524Z,23.72
2018-07-21T01:31:07.753Z,23.72
2018-07-21T01:33:35.988Z,23.72
2018-07-21T01:36:04.192Z,23.73
2018-07-21T01:38:32.429Z,23.69
2018-07-21T01:41:00.628Z,23.64
2018-07-21T01:43:28.856Z,23.59
2018-07-21T01:45:57.121Z,23.53
2018-07-21T01:48:25.361Z,23.48
2018-07-21T01:50:53.576Z,23.45
2018-07-21T01:53:21.812Z,23.42
2018-07-21T01:55:50.049Z,23.39
2018-07-21T01:58:18.261Z,23.38
2018-07-21T02:00:46.500Z,23.32
2018-07-21T02:03:14.744Z,23.26
2018-07-21T02:05:42.988Z,23.20
2018-07-21T02:08:11.204Z,23.15
2018-07-21T02:10:39.449Z,23.11
2018-07-21T02:13:07.692Z,23.08
2018-07-21T02:15:35.923Z,23.04
2018-07-21T02:18:04.125Z,23.01
2018-07-21T02:20:32.361Z,22.98
2018-07-21T02:23:00.622Z,22.93
2018-07-21T02:25:28.860Z,22.88
2018-07-21T02:27:57.069Z,22.84
2018-07-21T02:30:25.312Z,22.79
2018-07-21T02:32:53.529Z,22.77
2018-07-21T02:35:21.753Z,22.73
2018-07-21T02:37:49.980Z,22.72
2018-07-21T02:40:18.224Z,22.75
2018-07-21T02:42:46.460Z,22.76
2018-07-21T02:45:14.702Z,22.77
2018-07-21T02:47:42.937Z,22.76
2018-07-21T02:50:11.165Z,22.73
2018-07-21T02:52:39.428Z,22.68
2018-07-21T02:55:07.824Z,22.64
2018-07-21T02:57:36.109Z,22.62
2018-07-21T03:00:04.817Z,22.58
2018-07-21T03:02:33.044Z,22.55
2018-07-21T03:05:01.249Z,22.55
2018-07-21T03:07:29.469Z,22.55
2018-07-21T03:09:57.737Z,22.53
2018-07-21T03:12:25.933Z,22.50
2018-07-21T03:14:54.161Z,22.50
2018-07-21T03:17:22.376Z,22.50
2018-07-21T03:19:50.604Z,22.49
2018-07-21T03:22:18.841Z,22.50
2018-07-21T03:24:47.073Z,22.50
2018-07-21T03:27:15.276Z,22.47
2018-07-21T03:29:43.509Z,22.47
2018-07-21T03:32:11.848Z,22.44
2018-07-21T03:34:40.061Z,22.46
2018-07-21T03:37:08.296Z,22.43
2018-07-21T03:39:36.545Z,22.43
2018-07-21T03:42:04.837Z,22.41
2018-07-21T03:44:33.056Z,22.40
2018-07-21T03:47:01.294Z,22.39
2018-07-21T03:49:29.541Z,22.37
2018-07-21T03:51:57.753Z,22.37
2018-07-21T03:54:25.971Z,22.38
2018-07-21T03:56:54.188Z,22.36
2018-07-21T03:59:22.648Z,22.35
2018-07-21T04:01:50.889Z,22.34
2018-07-21T04:04:19.120Z,22.32
2018-07-21T04:06:47.337Z,22.30
2018-07-21T04:09:15.593Z,22.28
2018-07-21T04:11:43.841Z,22.30
2018-07-21T04:14:12.118Z,22.29
2018-07-21T04:16:40.366Z,22.18
2018-07-21T04:19:08.973Z,22.00
2018-07-21T04:21:37.204Z,21.83
2018-07-21T04:24:05.465Z,21.69
2018-07-21T04:26:33.653Z,21.59
2018-07-21T04:29:01.853Z,21.50
2018-07-21T04:31:30.101Z,21.44
2018-07-21T04:33:58.308Z,21.38
2018-07-21T04:36:26.585Z,21.33
2018-07-21T04:38:54.801Z,21.29
2018-07-21T04:41:23.052Z,21.25
2018-07-21T04:43:51.304Z,21.23
2018-07-21T04:46:19.661Z,21.20
2018-07-21T04:48:47.957Z,21.19
2018-07-21T04:51:16.277Z,21.17
2018-07-21T04:53:44.505Z,21.15
2018-07-21T04:56:12.764Z,21.13
2018-07-21T04:58:41.024Z,21.11
2018-07-21T05:01:09.337Z,21.11
2018-07-21T05:03:37.525Z,21.10
2018-07-21T05:06:05.761Z,21.08
2018-07-21T05:08:33.963Z,21.09
2018-07-21T05:11:02.179Z,21.11
2018-07-21T05:13:30.373Z,21.11
2018-07-21T05:15:58.597Z,21.12
2018-07-21T05:18:26.805Z,21.19
2018-07-21T05:20:55.041Z,21.25
2018-07-21T05:23:23.249Z,21.24
2018-07-21T05:25:52.356Z,21.25
2018-07-21T05:28:20.579Z,21.26
2018-07-21T05:30:48.805Z,21.26
2018-07-21T05:33:17.065Z,21.27
2018-07-21T05:35:45.301Z,21.28
2018-07-21T05:38:13.517Z,21.31
2018-07-21T05:40:41.781Z,21.35
2018-07-21T05:43:10.020Z,21.38
2018-07-21T05:45:38.265Z,21.39
2018-07-21T05:48:06.121Z,21.40
2018-07-21T05:50:34.348Z,21.44
2018-07-21T05:53:02.664Z,21.49
2018-07-21T05:55:30.877Z,21.51
2018-07-21T05:57:59.100Z,21.55
2018-07-21T06:00:27.313Z,21.56
2018-07-21T06:02:55.588Z,21.56
2018-07-21T06:05:23.836Z,21.55
2018-07-21T06:07:52.051Z,21.55
2018-07-21T06:10:20.313Z,21.54
2018-07-21T06:12:48.540Z,21.55
2018-07-21T06:15:16.817Z,21.54
2018-07-21T06:17:45.058Z,21.55
2018-07-21T06:20:13.289Z,21.58
2018-07-21T06:22:41.529Z,21.59
2018-07-21T06:25:09.880Z,21.62
2018-07-21T06:27:38.033Z,21.64
2018-07-21T06:30:06.393Z,21.65
2018-07-21T06:32:34.600Z,21.67
2018-07-21T06:35:02.829Z,21.70
2018-07-21T06:37:31.065Z,21.70
2018-07-21T06:39:59.308Z,21.72
2018-07-21T06:42:27.749Z,21.75
2018-07-21T06:44:55.993Z,21.80
2018-07-21T06:47:24.213Z,21.80
2018-07-21T06:49:52.424Z,21.83
2018-07-21T06:52:20.632Z,21.84
2018-07-21T06:54:48.899Z,21.86
2018-07-21T06:57:17.148Z,21.86
2018-07-21T06:59:45.373Z,21.86
2018-07-21T07:02:13.612Z,21.88
2018-07-21T07:04:41.850Z,21.92
2018-07-21T07:07:10.089Z,21.95
2018-07-21T07:09:38.333Z,21.99
2018-07-21T07:12:06.597Z,22.00
2018-07-21T07:14:34.813Z,22.01
2018-07-21T07:17:03.037Z,22.01
2018-07-21T07:19:31.265Z,22.04
2018-07-21T07:21:59.494Z,22.08
2018-07-21T07:24:27.749Z,22.12
2018-07-21T07:26:55.957Z,22.11
2018-07-21T07:29:24.269Z,22.10
2018-07-21T07:31:52.517Z,22.11
2018-07-21T07:34:20.755Z,22.09
2018-07-21T07:36:48.969Z,22.07
2018-07-21T07:39:17.200Z,22.11
2018-07-21T07:41:45.420Z,22.17
2018-07-21T07:44:13.661Z,22.23
2018-07-21T07:46:41.897Z,22.29
2018-07-21T07:49:10.109Z,22.32
2018-07-21T07:51:38.332Z,22.30
2018-07-21T07:54:06.553Z,22.25
2018-07-21T07:56:34.785Z,22.22
2018-07-21T07:59:03.005Z,22.20
2018-07-21T08:01:31.229Z,22.20
2018-07-21T08:03:59.445Z,22.26
2018-07-21T08:06:27.677Z,22.27
2018-07-21T08:08:55.895Z,22.22
2018-07-21T08:11:24.145Z,22.22
2018-07-21T08:13:52.377Z,22.23
2018-07-21T08:16:20.620Z,22.24
2018-07-21T08:18:48.940Z,22.25
2018-07-21T08:21:17.180Z,22.26
2018-07-21T08:23:45.436Z,22.26
2018-07-21T08:26:13.679Z,22.31
2018-07-21T08:28:41.893Z,22.31
2018-07-21T08:31:10.147Z,22.34
2018-07-21T08:33:38.716Z,22.35
2018-07-21T08:36:07.741Z,22.36
2018-07-21T08:38:36.037Z,22.44
2018-07-21T08:41:04.273Z,22.51
2018-07-21T08:43:32.508Z,22.53
2018-07-21T08:46:00.777Z,22.53
2018-07-21T08:48:29.011Z,22.59
2018-07-21T08:50:57.287Z,22.64
2018-07-21T08:53:25.505Z,22.72
2018-07-21T08:55:53.772Z,22.80
2018-07-21T08:58:21.949Z,22.87
2018-07-21T09:00:50.189Z,22.86
2018-07-21T09:03:18.405Z,22.86
2018-07-21T09:05:46.675Z,22.86
2018-07-21T09:08:14.881Z,22.88
2018-07-21T09:10:43.125Z,22.92
2018-07-21T09:13:11.421Z,22.93
2018-07-21T09:15:39.689Z,22.97
2018-07-21T09:18:07.903Z,22.99
2018-07-21T09:20:36.132Z,22.99
2018-07-21T09:23:04.368Z,23.04
2018-07-21T09:25:32.632Z,23.10
2018-07-21T09:28:00.857Z,23.21
2018-07-21T09:30:29.099Z,23.29
2018-07-21T09:32:57.353Z,23.39
2018-07-21T09:35:25.612Z,23.45
2018-07-21T09:37:53.833Z,23.55
2018-07-21T09:40:22.073Z,23.65
2018-07-21T09:42:50.293Z,23.73
2018-07-21T09:45:18.526Z,23.83
2018-07-21T09:47:46.741Z,23.91
2018-07-21T09:50:14.979Z,23.96
2018-07-21T09:52:43.216Z,24.03
2018-07-21T09:55:11.461Z,24.08
2018-07-21T09:57:39.809Z,24.12
2018-07-21T10:00:09.925Z,24.14
2018-07-21T10:02:38.292Z,24.17
2018-07-21T10:05:07.205Z,24.18
2018-07-21T10:07:35.497Z,24.20
2018-07-21T10:10:03.819Z,24.23
2018-07-21T10:12:32.054Z,24.27
2018-07-21T10:15:00.280Z,24.28
2018-07-21T10:17:28.529Z,24.32
2018-07-21T10:19:56.776Z,24.38
2018-07-21T10:22:25.105Z,24.42
2018-07-21T10:24:58.616Z,24.49
2018-07-21T10:27:32.129Z,24.53
2018-07-21T10:30:00.365Z,24.60
2018-07-21T10:34:55.821Z,24.73
2018-07-21T10:37:24.036Z,24.82
2018-07-21T10:39:52.245Z,24.92
2018-07-21T10:42:20.469Z,24.99
2018-07-21T10:44:48.753Z,25.08
2018-07-21T10:47:17.012Z,25.22
2018-07-21T10:49:45.256Z,25.39
2018-07-21T10:52:13.477Z,25.61
2018-07-21T10:54:41.704Z,25.86
2018-07-21T10:57:09.908Z,26.17
2018-07-21T10:59:38.144Z,26.47
2018-07-21T11:02:06.378Z,26.72
2018-07-21T11:04:34.617Z,26.93
2018-07-21T11:07:02.857Z,27.07
2018-07-21T11:09:31.093Z,27.25
2018-07-21T11:11:59.336Z,27.53
2018-07-21T11:14:27.544Z,27.70
2018-07-21T11:16:55.780Z,27.77
2018-07-21T11:19:24.031Z,27.83
2018-07-21T11:21:52.369Z,27.91
2018-07-21T11:24:20.526Z,27.98
2018-07-21T11:26:48.741Z,28.03
2018-07-21T11:29:17.009Z,28.16
2018-07-21T11:31:45.244Z,28.24
2018-07-21T11:34:13.445Z,28.30
2018-07-21T11:36:41.674Z,28.34
2018-07-21T11:39:10.182Z,28.37
2018-07-21T11:41:38.434Z,28.39
2018-07-21T11:44:06.652Z,28.36
2018-07-21T11:46:34.877Z,28.50
2018-07-21T11:49:03.081Z,28.54
2018-07-21T11:51:31.340Z,28.64
2018-07-21T11:53:59.549Z,28.75
2018-07-21T11:56:27.788Z,28.89
2018-07-21T11:58:56.013Z,29.05
2018-07-21T12:01:24.230Z,29.11
2018-07-21T12:03:52.445Z,29.20
2018-07-21T12:06:20.704Z,29.33
2018-07-21T12:08:48.955Z,29.40
2018-07-21T12:11:17.185Z,29.37
2018-07-21T12:13:45.390Z,29.51
2018-07-21T12:16:13.626Z,29.67
2018-07-21T12:18:41.858Z,29.79
2018-07-21T12:21:10.085Z,29.90
2018-07-21T12:23:38.373Z,30.04
2018-07-21T12:26:07.028Z,29.97
2018-07-21T12:28:35.261Z,29.73
2018-07-21T12:31:03.476Z,29.64
2018-07-21T12:33:31.740Z,29.56
2018-07-21T12:35:59.981Z,29.42
2018-07-21T12:38:28.275Z,29.26
2018-07-21T12:40:56.484Z,29.06
2018-07-21T12:43:24.708Z,29.16
2018-07-21T12:45:53.024Z,29.30
2018-07-21T12:48:21.261Z,29.60
2018-07-21T12:50:49.469Z,29.97
2018-07-21T12:53:17.701Z,30.43
2018-07-21T12:55:45.900Z,30.52
2018-07-21T12:58:14.109Z,30.57
2018-07-21T13:00:42.381Z,30.57
2018-07-21T13:03:10.637Z,30.59
2018-07-21T13:05:38.849Z,30.56
2018-07-21T13:08:07.189Z,30.56
2018-07-21T13:10:35.408Z,30.57
2018-07-21T13:13:03.644Z,30.54
2018-07-21T13:15:31.869Z,30.28
2018-07-21T13:18:00.104Z,29.96
2018-07-21T13:20:28.320Z,29.73
2018-07-21T13:22:56.565Z,29.48
2018-07-21T13:25:24.828Z,29.31
2018-07-21T13:27:53.044Z,29.19
2018-07-21T13:30:21.282Z,29.04
2018-07-21T13:32:49.497Z,28.95
2018-07-21T13:35:17.730Z,28.90
2018-07-21T13:37:45.949Z,28.83
2018-07-21T13:40:14.187Z,28.83
2018-07-21T13:42:42.412Z,28.84
2018-07-21T13:45:10.653Z,28.82
2018-07-21T13:47:38.922Z,28.87
2018-07-21T13:50:07.204Z,29.02
2018-07-21T13:52:35.410Z,29.19
2018-07-21T13:55:03.709Z,29.40
2018-07-21T13:57:31.884Z,29.67
2018-07-21T14:00:00.173Z,29.87
2018-07-21T14:02:28.372Z,30.05
2018-07-21T14:04:56.600Z,30.19
2018-07-21T14:07:24.849Z,30.32
2018-07-21T14:09:53.049Z,30.44
2018-07-21T14:12:21.293Z,30.52
2018-07-21T14:14:49.500Z,30.61
2018-07-21T14:17:17.755Z,30.67
2018-07-21T14:19:45.976Z,30.73
2018-07-21T14:22:14.373Z,30.85
2018-07-21T14:24:42.585Z,30.92
2018-07-21T14:27:10.833Z,31.03
2018-07-21T14:29:39.134Z,31.08
2018-07-21T14:32:07.328Z,30.94
2018-07-21T14:34:35.536Z,30.78
2018-07-21T14:37:03.813Z,30.70
2018-07-21T14:39:32.030Z,30.70
2018-07-21T14:42:00.260Z,30.73
2018-07-21T14:44:28.474Z,30.65
2018-07-21T14:46:56.704Z,30.57
2018-07-21T14:49:24.951Z,30.60
2018-07-21T14:51:53.160Z,30.67
2018-07-21T14:54:21.381Z,30.74
2018-07-21T14:56:49.593Z,30.67
2018-07-21T14:59:17.821Z,30.61
2018-07-21T15:01:46.120Z,30.64
2018-07-21T15:04:14.329Z,30.68
2018-07-21T15:06:42.574Z,30.74
2018-07-21T15:09:11.770Z,30.82
2018-07-21T15:11:40.022Z,30.90
2018-07-21T15:14:08.377Z,30.94
2018-07-21T15:16:36.648Z,31.03
2018-07-21T15:19:04.856Z,31.11
2018-07-21T15:21:33.088Z,31.21
2018-07-21T15:24:01.375Z,31.23
2018-07-21T15:26:29.536Z,31.21
2018-07-21T15:28:57.752Z,31.20
2018-07-21T15:31:25.996Z,31.30
2018-07-21T15:33:54.209Z,31.40
2018-07-21T15:36:22.440Z,31.46
2018-07-21T15:38:50.659Z,31.43
2018-07-21T15:41:18.889Z,31.46
2018-07-21T15:43:47.120Z,31.48
2018-07-21T15:46:15.372Z,31.37
2018-07-21T15:48:43.582Z,31.13
2018-07-21T15:51:11.808Z,30.90
2018-07-21T15:53:40.021Z,30.71
2018-07-21T15:56:08.269Z,30.48
2018-07-21T15:58:36.493Z,30.23
2018-07-21T16:01:04.778Z,30.04
2018-07-21T16:03:33.005Z,29.88
2018-07-21T16:06:01.301Z,29.74
2018-07-21T16:08:29.543Z,29.58
2018-07-21T16:10:57.764Z,29.48
2018-07-21T16:13:26.066Z,29.42
2018-07-21T16:15:54.307Z,29.37
2018-07-21T16:18:22.516Z,29.31
2018-07-21T16:20:50.719Z,29.44
2018-07-21T16:23:18.936Z,29.59
2018-07-21T16:25:47.144Z,29.65
2018-07-21T16:28:15.358Z,29.61
2018-07-21T16:30:43.605Z,29.49
2018-07-21T16:33:11.813Z,29.34
2018-07-21T16:35:40.054Z,29.26
2018-07-21T16:38:08.260Z,29.29
2018-07-21T16:40:36.493Z,29.57
2018-07-21T16:43:04.733Z,30.15
2018-07-21T16:45:32.983Z,30.72
2018-07-21T16:48:01.207Z,31.20
2018-07-21T16:50:29.437Z,31.51
2018-07-21T16:52:57.679Z,31.74
2018-07-21T16:55:25.937Z,31.96
2018-07-21T16:57:54.256Z,32.14
2018-07-21T17:00:22.490Z,32.35
2018-07-21T17:02:50.736Z,32.18
2018-07-21T17:05:18.937Z,31.55
2018-07-21T17:07:47.189Z,30.94
2018-07-21T17:10:15.429Z,30.40
2018-07-21T17:12:43.645Z,30.31
2018-07-21T17:15:11.865Z,30.22
2018-07-21T17:17:40.089Z,30.00
2018-07-21T17:20:08.329Z,29.57
2018-07-21T17:22:36.560Z,29.40
2018-07-21T17:25:04.776Z,29.26
2018-07-21T17:27:33.017Z,29.17
2018-07-21T17:30:01.261Z,29.04
2018-07-21T17:32:29.531Z,28.87
2018-07-21T17:34:57.777Z,28.75
2018-07-21T17:37:26.029Z,28.63
2018-07-21T17:39:54.235Z,28.52
2018-07-21T17:42:22.510Z,28.41
2018-07-21T17:44:50.789Z,28.33
2018-07-21T17:47:18.980Z,28.23
2018-07-21T17:49:47.181Z,28.14
2018-07-21T17:52:15.431Z,28.06
2018-07-21T17:54:43.676Z,27.96
2018-07-21T17:57:11.904Z,27.89
2018-07-21T17:59:40.114Z,27.83
2018-07-21T18:02:08.415Z,27.76
2018-07-21T18:04:36.819Z,27.71
2018-07-21T18:07:05.053Z,27.64
2018-07-21T18:09:33.301Z,27.57
2018-07-21T18:12:01.569Z,27.52
2018-07-21T18:14:29.785Z,27.51
2018-07-21T18:16:58.010Z,27.48
2018-07-21T18:19:26.236Z,27.38
2018-07-21T18:21:54.469Z,27.29
2018-07-21T18:24:22.689Z,27.23
2018-07-21T18:26:50.904Z,27.18
2018-07-21T18:29:19.116Z,27.15
2018-07-21T18:31:47.403Z,27.13
2018-07-21T18:34:15.597Z,27.14
2018-07-21T18:36:43.813Z,27.13
2018-07-21T18:39:12.709Z,27.07
2018-07-21T18:41:41.516Z,27.04
2018-07-21T18:44:09.741Z,27.03
2018-07-21T18:46:38.131Z,27.02
2018-07-21T18:49:06.367Z,27.00
2018-07-21T18:51:34.614Z,27.00
2018-07-21T18:54:02.821Z,27.00
2018-07-21T18:56:31.045Z,27.02
2018-07-21T18:58:59.256Z,27.02
2018-07-21T19:01:27.485Z,26.95
2018-07-21T19:03:55.716Z,27.00
2018-07-21T19:06:23.930Z,26.97
2018-07-21T19:08:57.529Z,26.90
2018-07-21T19:11:25.748Z,26.78
2018-07-21T19:13:54.033Z,26.75
2018-07-21T19:16:27.472Z,26.72
2018-07-21T19:18:55.684Z,26.71
2018-07-21T19:21:23.969Z,26.72
2018-07-21T19:23:52.433Z,26.72
2018-07-21T19:26:26.097Z,26.70
2018-07-21T19:28:54.368Z,26.69
2018-07-21T19:31:22.653Z,26.65
2018-07-21T19:33:50.895Z,26.53
2018-07-21T19:36:19.101Z,26.49
2018-07-21T19:38:47.316Z,26.45
2018-07-21T19:41:20.965Z,26.44
2018-07-21T19:43:49.216Z,26.44
2018-07-21T19:46:17.431Z,26.43
2018-07-21T19:48:45.657Z,26.41
2018-07-21T19:51:13.881Z,26.42
2018-07-21T19:53:42.122Z,26.41
2018-07-21T19:56:10.365Z,26.34
2018-07-21T19:58:38.584Z,26.36
2018-07-21T20:01:06.837Z,26.33
2018-07-21T20:03:35.052Z,26.28
2018-07-21T20:06:03.270Z,26.23
2018-07-21T20:08:31.562Z,26.17
2018-07-21T20:10:59.733Z,26.10
2018-07-21T20:13:27.977Z,26.06
2018-07-21T20:15:56.181Z,26.01
2018-07-21T20:18:24.429Z,25.91
2018-07-21T20:20:52.661Z,25.89
2018-07-21T20:23:20.872Z,25.89
2018-07-21T20:25:49.092Z,25.88
2018-07-21T20:28:17.333Z,25.86
2018-07-21T20:30:45.558Z,25.83
2018-07-21T20:33:13.828Z,25.79
2018-07-21T20:35:42.045Z,25.76
2018-07-21T20:38:10.291Z,25.72
2018-07-21T20:40:38.501Z,25.69
2018-07-21T20:43:06.830Z,25.67
2018-07-21T20:45:35.077Z,25.65
2018-07-21T20:48:03.309Z,25.66
2018-07-21T20:50:31.516Z,25.63
2018-07-21T20:52:59.736Z,25.63
2018-07-21T20:55:27.976Z,25.62
2018-07-21T20:57:59.509Z,25.60
2018-07-21T21:00:27.827Z,25.61
2018-07-21T21:02:55.977Z,25.59
2018-07-21T21:05:24.229Z,25.59
2018-07-21T21:07:52.474Z,25.51
2018-07-21T21:10:20.693Z,25.56
2018-07-21T21:12:48.945Z,25.54
2018-07-21T21:15:17.185Z,25.47
2018-07-21T21:17:45.456Z,25.41
2018-07-21T21:20:13.712Z,25.33
2018-07-21T21:22:41.969Z,25.30
2018-07-21T21:25:10.161Z,25.29
2018-07-21T21:27:38.489Z,25.27
2018-07-21T21:30:06.751Z,25.25
2018-07-21T21:32:34.968Z,25.21
2018-07-21T21:35:03.213Z,25.16
2018-07-21T21:37:31.448Z,25.12
2018-07-21T21:39:59.704Z,25.07
2018-07-21T21:42:28.034Z,25.06
2018-07-21T21:44:56.191Z,25.02
2018-07-21T21:47:24.416Z,24.99
2018-07-21T21:49:52.664Z,24.90
2018-07-21T21:52:20.894Z,24.85
2018-07-21T21:54:49.136Z,24.81
2018-07-21T21:57:17.393Z,24.77
2018-07-21T21:59:45.636Z,24.74
2018-07-21T22:02:13.857Z,24.75
2018-07-21T22:04:42.125Z,24.78
2018-07-21T22:07:10.337Z,24.77
2018-07-21T22:09:38.560Z,24.75
2018-07-21T22:12:06.818Z,24.70
2018-07-21T22:14:35.034Z,24.69
2018-07-21T22:17:03.320Z,24.67
2018-07-21T22:19:32.474Z,24.63
2018-07-21T22:22:00.705Z,24.61
2018-07-21T22:24:28.950Z,24.62
2018-07-21T22:26:57.194Z,24.62
2018-07-21T22:29:25.405Z,24.67
2018-07-21T22:31:53.632Z,24.69
2018-07-21T22:34:21.876Z,24.70
2018-07-21T22:36:50.121Z,24.69
2018-07-21T22:39:18.349Z,24.69
2018-07-21T22:41:46.621Z,24.70
2018-07-21T22:44:14.943Z,24.67
2018-07-21T22:46:43.142Z,24.67
2018-07-21T22:49:11.381Z,24.67
2018-07-21T22:51:39.604Z,24.67
2018-07-21T22:54:07.829Z,24.64
2018-07-21T22:56:36.057Z,24.61
2018-07-21T22:59:04.292Z,24.58
2018-07-21T23:01:32.539Z,24.58
2018-07-21T23:04:00.809Z,24.56
2018-07-21T23:06:29.029Z,24.53
2018-07-21T23:08:57.240Z,24.53
2018-07-21T23:11:25.478Z,24.52
2018-07-21T23:13:53.689Z,24.48
2018-07-21T23:16:21.925Z,24.47
2018-07-21T23:18:50.132Z,24.46
2018-07-21T23:21:18.369Z,24.45
2018-07-21T23:23:46.601Z,24.44
2018-07-21T23:26:14.869Z,24.41
2018-07-21T23:28:43.077Z,24.38
2018-07-21T23:31:11.352Z,24.36
2018-07-21T23:33:39.597Z,24.34
2018-07-21T23:36:07.841Z,24.32
2018-07-21T23:38:36.162Z,24.30
2018-07-21T23:41:04.389Z,24.27
2018-07-21T23:43:32.609Z,24.25
2018-07-21T23:46:00.848Z,24.25
2018-07-21T23:48:29.078Z,24.23
2018-07-21T23:50:57.313Z,24.21
2018-07-21T23:53:25.546Z,24.21
2018-07-21T23:55:53.769Z,24.20
2018-07-21T23:58:21.986Z,24.18
